Big Timber, Montana
Current Conditions -  °F | °C
As of 4:53 AM on Friday 28 Nov 2014 (Local Time) from KLVM Reporting Station
Broken Clouds Broken Clouds  
Wind Chill: 53°   Ceiling: 9000
Heat Index: 53°   Visibility: 10mi
Dew Point: 25°   Wind: 26mph
Humidity: 34%   Direction: 230°SW
Pressure: 29.69"   Gusts: 33mph
Location:  45.83°N, 109.96°W
Report Text: KLVM 281153Z AUTO 23023G29KT 10SM BKN090 12/M04 A2969 RMK AO2 PK WND 21039/1124 SLP035 T01171039 10122 20111 58019
Loading
Personal Weather Stations






























Interactive Weather Map New forecast layout! Learn more

10-Day Weather Forecast

Advertisements
Track Severe Weather on mobile